createdAt,value
2022-10-30T00:01:36.380Z,21.24
2022-10-30T00:04:02.860Z,21.21
2022-10-30T00:06:29.351Z,21.20
2022-10-30T00:08:55.921Z,21.18
2022-10-30T00:11:22.717Z,21.17
2022-10-30T00:13:49.950Z,21.14
2022-10-30T00:16:16.580Z,21.12
2022-10-30T00:18:43.443Z,21.08
2022-10-30T00:21:12.485Z,21.05
2022-10-30T00:23:39.519Z,21.03
2022-10-30T00:26:07.590Z,21.02
2022-10-30T00:28:34.493Z,21.00
2022-10-30T00:31:02.601Z,20.98
2022-10-30T00:33:29.139Z,20.95
2022-10-30T00:35:55.634Z,20.93
2022-10-30T00:38:22.306Z,20.91
2022-10-30T00:40:48.849Z,20.90
2022-10-30T00:43:34.949Z,20.84
2022-10-30T00:46:21.660Z,20.82
2022-10-30T00:48:52.895Z,20.84
2022-10-30T00:51:20.728Z,20.83
2022-10-30T00:53:48.613Z,20.83
2022-10-30T00:56:17.650Z,20.80
2022-10-30T00:58:50.927Z,20.79
2022-10-30T01:01:21.699Z,20.79
2022-10-30T01:03:50.578Z,20.79
2022-10-30T01:06:17.725Z,20.79
2022-10-30T01:08:45.327Z,20.79
2022-10-30T01:11:12.460Z,20.78
2022-10-30T01:13:42.288Z,20.77
2022-10-30T01:16:35.284Z,20.73
2022-10-30T01:19:16.887Z,20.77
2022-10-30T01:22:15.254Z,20.71
2022-10-30T01:25:00.468Z,20.71
2022-10-30T01:27:48.885Z,20.69
2022-10-30T01:30:27.311Z,20.68
2022-10-30T01:33:14.853Z,20.66
2022-10-30T01:35:48.964Z,20.66
2022-10-30T01:38:19.206Z,20.65
2022-10-30T01:40:45.904Z,20.63
2022-10-30T01:43:12.468Z,20.61
2022-10-30T01:46:13.748Z,20.52
2022-10-30T01:48:49.291Z,20.52
2022-10-30T01:51:15.830Z,20.51
2022-10-30T01:53:53.540Z,20.48
2022-10-30T01:56:35.221Z,20.41
2022-10-30T01:59:30.416Z,20.36
2022-10-30T02:01:58.240Z,20.38
2022-10-30T02:04:25.103Z,20.34
2022-10-30T02:06:51.811Z,20.31
2022-10-30T02:09:18.420Z,20.27
2022-10-30T02:11:47.352Z,20.23
2022-10-30T02:14:18.545Z,20.21
2022-10-30T02:16:47.743Z,20.19
2022-10-30T02:19:14.360Z,20.16
2022-10-30T02:21:40.979Z,20.14
2022-10-30T02:24:07.689Z,20.14
2022-10-30T02:26:34.423Z,20.13
2022-10-30T02:29:00.979Z,20.14
2022-10-30T02:31:27.650Z,20.12
2022-10-30T02:33:54.177Z,20.13
2022-10-30T02:36:20.872Z,20.14
2022-10-30T02:38:47.367Z,20.14
2022-10-30T02:41:14.221Z,20.15
2022-10-30T02:43:40.723Z,20.14
2022-10-30T02:46:07.286Z,20.14
2022-10-30T02:48:33.765Z,20.14
2022-10-30T02:51:01.212Z,20.12
2022-10-30T02:53:28.242Z,20.11
2022-10-30T02:55:55.154Z,20.10
2022-10-30T02:58:21.992Z,20.08
2022-10-30T03:00:48.539Z,20.07
2022-10-30T03:03:17.520Z,20.04
2022-10-30T03:05:46.501Z,20.02
2022-10-30T03:08:13.136Z,20.02
2022-10-30T03:10:39.620Z,20.00
2022-10-30T03:13:06.111Z,19.99
2022-10-30T03:15:32.645Z,19.96
2022-10-30T03:17:59.583Z,19.92
2022-10-30T03:20:26.285Z,19.91
2022-10-30T03:22:52.922Z,19.88
2022-10-30T03:25:23.669Z,19.87
2022-10-30T03:27:50.679Z,19.84
2022-10-30T03:30:17.390Z,19.79
2022-10-30T03:32:43.973Z,19.76
2022-10-30T03:35:10.471Z,19.73
2022-10-30T03:37:36.968Z,19.69
2022-10-30T03:40:03.580Z,19.66
2022-10-30T03:42:30.021Z,19.62
2022-10-30T03:44:56.503Z,19.58
2022-10-30T03:47:23.091Z,19.54
2022-10-30T03:49:49.727Z,19.51
2022-10-30T03:52:16.216Z,19.47
2022-10-30T03:54:42.669Z,19.42
2022-10-30T03:57:09.257Z,19.38
2022-10-30T03:59:35.794Z,19.35
2022-10-30T04:02:02.493Z,19.32
2022-10-30T04:04:29.182Z,19.29
2022-10-30T04:06:55.714Z,19.26
2022-10-30T04:09:22.232Z,19.23
2022-10-30T04:11:48.765Z,19.21
2022-10-30T04:14:15.271Z,19.18
2022-10-30T04:16:41.833Z,19.17
2022-10-30T04:19:08.405Z,19.14
2022-10-30T04:21:34.892Z,19.13
2022-10-30T04:24:01.432Z,19.13
2022-10-30T04:26:28.421Z,19.13
2022-10-30T04:28:54.802Z,19.15
2022-10-30T04:31:21.116Z,19.16
2022-10-30T04:33:47.442Z,19.18
2022-10-30T04:36:13.844Z,19.21
2022-10-30T04:38:40.191Z,19.22
2022-10-30T04:41:06.545Z,19.23
2022-10-30T04:43:32.907Z,19.25
2022-10-30T04:45:59.298Z,19.24
2022-10-30T04:48:25.636Z,19.24
2022-10-30T04:50:52.027Z,19.23
2022-10-30T04:53:19.119Z,19.24
2022-10-30T04:55:45.759Z,19.23
2022-10-30T04:58:12.930Z,19.23
2022-10-30T05:00:39.710Z,19.21
2022-10-30T05:03:06.046Z,19.20
2022-10-30T05:05:32.468Z,19.19
2022-10-30T05:07:59.291Z,19.16
2022-10-30T05:10:25.993Z,19.12
2022-10-30T05:12:55.739Z,19.11
2022-10-30T05:15:22.183Z,19.07
2022-10-30T05:17:53.561Z,19.05
2022-10-30T05:20:20.637Z,19.06
2022-10-30T05:22:54.253Z,19.02
2022-10-30T05:25:20.611Z,19.04
2022-10-30T05:27:46.997Z,19.02
2022-10-30T05:30:13.462Z,19.02
2022-10-30T05:32:39.847Z,18.99
2022-10-30T05:35:06.802Z,18.97
2022-10-30T05:37:33.225Z,18.98
2022-10-30T05:39:59.553Z,18.97
2022-10-30T05:42:26.090Z,18.97
2022-10-30T05:45:00.999Z,18.95
2022-10-30T05:47:28.249Z,18.94
2022-10-30T05:49:54.821Z,18.94
2022-10-30T05:52:21.330Z,18.92
2022-10-30T05:54:47.852Z,18.92
2022-10-30T05:57:14.341Z,18.88
2022-10-30T05:59:40.914Z,18.86
2022-10-30T06:02:07.526Z,18.83
2022-10-30T06:04:34.174Z,18.80
2022-10-30T06:07:00.726Z,18.77
2022-10-30T06:09:27.315Z,18.73
2022-10-30T06:11:54.329Z,18.71
2022-10-30T06:14:20.856Z,18.68
2022-10-30T06:16:47.965Z,18.67
2022-10-30T06:19:17.630Z,18.64
2022-10-30T06:21:46.055Z,18.63
2022-10-30T06:24:12.779Z,18.61
2022-10-30T06:26:39.725Z,18.60
2022-10-30T06:29:06.437Z,18.57
2022-10-30T06:31:33.058Z,18.57
2022-10-30T06:33:59.668Z,18.56
2022-10-30T06:36:26.193Z,18.55
2022-10-30T06:38:52.846Z,18.54
2022-10-30T06:41:19.448Z,18.51
2022-10-30T06:43:46.117Z,18.50
2022-10-30T06:46:12.787Z,18.47
2022-10-30T06:48:39.367Z,18.45
2022-10-30T06:51:06.097Z,18.42
2022-10-30T06:53:32.643Z,18.40
2022-10-30T06:56:01.288Z,18.36
2022-10-30T06:58:28.595Z,18.34
2022-10-30T07:00:55.962Z,18.32
2022-10-30T07:03:22.656Z,18.30
2022-10-30T07:05:49.210Z,18.27
2022-10-30T07:08:16.168Z,18.26
2022-10-30T07:10:42.709Z,18.25
2022-10-30T07:13:09.577Z,18.24
2022-10-30T07:15:36.489Z,18.24
2022-10-30T07:18:04.381Z,18.23
2022-10-30T07:20:33.496Z,18.22
2022-10-30T07:23:00.907Z,18.23
2022-10-30T07:25:27.920Z,18.23
2022-10-30T07:27:55.667Z,18.25
2022-10-30T07:32:58.266Z,18.27
2022-10-30T07:35:25.065Z,18.30
2022-10-30T07:37:51.748Z,18.32
2022-10-30T07:40:18.972Z,18.32
2022-10-30T07:42:45.568Z,18.34
2022-10-30T07:45:12.115Z,18.36
2022-10-30T07:47:42.995Z,18.36
2022-10-30T07:50:10.624Z,18.40
2022-10-30T07:52:37.222Z,18.40
2022-10-30T07:55:05.123Z,18.41
2022-10-30T07:57:42.544Z,18.39
2022-10-30T08:00:12.043Z,18.45
2022-10-30T08:02:38.937Z,18.47
2022-10-30T08:05:06.542Z,18.48
2022-10-30T08:07:34.504Z,18.48
2022-10-30T08:10:01.083Z,18.50
2022-10-30T08:12:27.948Z,18.50
2022-10-30T08:14:54.747Z,18.52
2022-10-30T08:17:21.745Z,18.53
2022-10-30T08:19:48.334Z,18.54
2022-10-30T08:22:14.872Z,18.55
2022-10-30T08:24:41.618Z,18.56
2022-10-30T08:27:08.182Z,18.57
2022-10-30T08:29:34.925Z,18.58
2022-10-30T08:32:01.615Z,18.60
2022-10-30T08:34:28.316Z,18.59
2022-10-30T08:36:54.939Z,18.61
2022-10-30T08:39:21.628Z,18.65
2022-10-30T08:41:48.188Z,18.67
2022-10-30T08:44:14.798Z,18.69
2022-10-30T08:46:41.331Z,18.73
2022-10-30T08:49:07.917Z,18.78
2022-10-30T08:51:35.319Z,18.81
2022-10-30T08:54:02.109Z,18.85
2022-10-30T08:56:28.666Z,18.89
2022-10-30T08:58:55.196Z,18.93
2022-10-30T09:01:21.899Z,18.97
2022-10-30T09:03:48.526Z,19.01
2022-10-30T09:06:15.117Z,19.07
2022-10-30T09:08:41.865Z,19.12
2022-10-30T09:11:08.378Z,19.16
2022-10-30T09:13:34.933Z,19.22
2022-10-30T09:16:02.210Z,19.26
2022-10-30T09:18:29.044Z,19.33
2022-10-30T09:20:55.566Z,19.37
2022-10-30T09:23:22.158Z,19.46
2022-10-30T09:25:48.722Z,19.52
2022-10-30T09:28:15.285Z,19.59
2022-10-30T09:30:41.797Z,19.66
2022-10-30T09:33:09.175Z,19.73
2022-10-30T09:35:36.949Z,19.82
2022-10-30T09:38:03.590Z,19.89
2022-10-30T09:41:04.004Z,19.96
2022-10-30T09:44:07.423Z,20.08
2022-10-30T09:46:36.503Z,20.23
2022-10-30T09:49:38.470Z,20.30
2022-10-30T09:52:19.928Z,20.46
2022-10-30T09:55:05.366Z,20.51
2022-10-30T09:57:53.452Z,20.60
2022-10-30T10:00:22.821Z,20.73
2022-10-30T10:03:16.657Z,20.78
2022-10-30T10:05:52.337Z,20.88
2022-10-30T10:08:37.713Z,20.97
2022-10-30T10:11:13.746Z,21.11
2022-10-30T10:14:08.583Z,21.21
2022-10-30T10:16:39.209Z,21.36
2022-10-30T10:19:21.155Z,21.47
2022-10-30T10:22:01.951Z,21.62
2022-10-30T10:24:33.119Z,21.79
2022-10-30T10:27:23.503Z,21.90
2022-10-30T10:29:58.642Z,22.10
2022-10-30T10:32:30.837Z,22.25
2022-10-30T10:35:24.760Z,22.37
2022-10-30T10:37:57.588Z,22.57
2022-10-30T10:40:42.950Z,22.68
2022-10-30T10:43:37.663Z,22.87
2022-10-30T10:46:22.333Z,23.09
2022-10-30T10:48:54.889Z,23.26
2022-10-30T10:51:30.893Z,23.47
2022-10-30T10:54:02.480Z,23.74
2022-10-30T10:56:34.782Z,24.00
2022-10-30T10:59:18.583Z,24.28
2022-10-30T11:02:05.400Z,24.61
2022-10-30T11:04:36.016Z,24.95
2022-10-30T11:07:17.483Z,25.23
2022-10-30T11:09:45.058Z,25.50
2022-10-30T11:12:11.815Z,25.70
2022-10-30T11:14:38.588Z,25.91
2022-10-30T11:17:04.984Z,26.16
2022-10-30T11:19:32.176Z,26.48
2022-10-30T11:21:59.176Z,26.86
2022-10-30T11:24:27.370Z,27.31
2022-10-30T11:26:56.871Z,27.80
2022-10-30T11:29:27.891Z,28.33
2022-10-30T11:32:18.592Z,28.91
2022-10-30T11:34:45.100Z,29.48
2022-10-30T11:37:30.539Z,30.00
2022-10-30T11:40:12.149Z,30.56
2022-10-30T11:42:42.238Z,31.05
2022-10-30T11:45:24.008Z,31.45
2022-10-30T11:47:52.042Z,31.82
2022-10-30T11:50:28.230Z,32.03
2022-10-30T11:52:59.227Z,32.30
2022-10-30T11:55:38.920Z,32.54
2022-10-30T11:58:07.791Z,32.80
2022-10-30T12:00:36.252Z,33.00
2022-10-30T12:03:06.051Z,33.17
2022-10-30T12:05:44.860Z,33.28
2022-10-30T12:08:18.742Z,33.39
2022-10-30T12:10:51.426Z,33.46
2022-10-30T12:13:20.064Z,33.63
2022-10-30T12:15:49.919Z,33.65
2022-10-30T12:18:24.581Z,33.64
2022-10-30T12:20:57.039Z,33.67
2022-10-30T12:23:26.816Z,33.67
2022-10-30T12:25:55.712Z,33.67
2022-10-30T12:28:25.146Z,33.63
2022-10-30T12:31:01.006Z,33.51
2022-10-30T12:33:50.341Z,33.28
2022-10-30T12:36:21.396Z,33.02
2022-10-30T12:39:14.779Z,32.63
2022-10-30T12:41:41.275Z,32.23
2022-10-30T12:44:07.703Z,31.79
2022-10-30T12:46:42.016Z,31.31
2022-10-30T12:49:20.817Z,30.83
2022-10-30T12:51:59.430Z,30.46
2022-10-30T12:54:35.893Z,30.09
2022-10-30T12:57:14.176Z,29.73
2022-10-30T13:00:07.221Z,29.39
2022-10-30T13:02:33.696Z,29.17
2022-10-30T13:05:05.785Z,28.92
2022-10-30T13:07:58.363Z,28.71
2022-10-30T13:10:33.382Z,28.53
2022-10-30T13:13:08.299Z,28.39
2022-10-30T13:15:41.992Z,28.28
2022-10-30T13:18:34.588Z,28.09
2022-10-30T13:21:06.423Z,28.06
2022-10-30T13:24:02.009Z,27.89
2022-10-30T13:26:31.438Z,27.87
2022-10-30T13:29:07.005Z,27.73
2022-10-30T13:31:36.270Z,27.69
2022-10-30T13:34:44.778Z,27.57
2022-10-30T13:37:33.020Z,27.51
2022-10-30T13:40:26.775Z,27.45
2022-10-30T13:43:07.752Z,27.38
2022-10-30T13:45:36.932Z,27.39
2022-10-30T13:48:22.243Z,27.32
2022-10-30T13:51:05.389Z,27.37
2022-10-30T13:53:36.795Z,27.51
2022-10-30T13:56:04.833Z,27.64
2022-10-30T13:58:46.285Z,27.76
2022-10-30T14:01:21.415Z,27.92
2022-10-30T14:03:59.633Z,28.06
2022-10-30T14:06:44.513Z,28.22
2022-10-30T14:09:21.284Z,28.37
2022-10-30T14:11:47.812Z,28.46
2022-10-30T14:14:23.274Z,28.45
2022-10-30T14:17:11.275Z,28.44
2022-10-30T14:20:12.143Z,28.44
2022-10-30T14:22:40.284Z,28.48
2022-10-30T14:25:15.320Z,28.43
2022-10-30T14:27:42.020Z,28.44
2022-10-30T14:30:19.659Z,28.34
2022-10-30T14:32:51.811Z,28.30
2022-10-30T14:35:36.564Z,28.18
2022-10-30T14:38:07.000Z,28.10
2022-10-30T14:40:44.075Z,27.97
2022-10-30T14:43:23.531Z,27.80
2022-10-30T14:46:02.078Z,27.62
2022-10-30T14:48:41.328Z,27.44
2022-10-30T14:51:28.688Z,27.25
2022-10-30T14:54:18.558Z,27.07
2022-10-30T14:56:50.429Z,26.84
2022-10-30T14:59:16.899Z,26.66
2022-10-30T15:02:01.658Z,26.41
2022-10-30T15:05:03.982Z,26.19
2022-10-30T15:07:48.615Z,26.07
2022-10-30T15:10:35.263Z,25.83
2022-10-30T15:13:06.258Z,25.67
2022-10-30T15:15:33.381Z,25.52
2022-10-30T15:18:07.536Z,25.33
2022-10-30T15:20:35.517Z,25.20
2022-10-30T15:23:11.990Z,25.02
2022-10-30T15:25:49.386Z,24.90
2022-10-30T15:28:22.525Z,24.78
2022-10-30T15:31:27.584Z,24.64
2022-10-30T15:33:55.024Z,24.55
2022-10-30T15:36:24.153Z,24.43
2022-10-30T15:39:04.193Z,24.26
2022-10-30T15:41:31.369Z,24.19
2022-10-30T15:43:59.064Z,24.07
2022-10-30T15:46:25.737Z,23.98
2022-10-30T15:48:52.318Z,23.87
2022-10-30T15:51:24.351Z,23.74
2022-10-30T15:53:57.504Z,23.65
2022-10-30T15:56:31.585Z,23.56
2022-10-30T15:59:04.414Z,23.46
2022-10-30T16:01:42.674Z,23.36
2022-10-30T16:04:15.426Z,23.26
2022-10-30T16:06:50.094Z,23.17
2022-10-30T16:09:17.160Z,23.11
2022-10-30T16:11:44.315Z,22.99
2022-10-30T16:14:17.498Z,22.89
2022-10-30T16:16:45.510Z,22.82
2022-10-30T16:19:28.007Z,22.69
2022-10-30T16:21:57.537Z,22.64
2022-10-30T16:24:31.120Z,22.56
2022-10-30T16:27:15.038Z,22.44
2022-10-30T16:29:42.595Z,22.39
2022-10-30T16:34:46.270Z,22.24
2022-10-30T16:37:27.556Z,22.12
2022-10-30T16:39:55.975Z,22.10
2022-10-30T16:42:25.309Z,22.04
2022-10-30T16:45:12.452Z,21.93
2022-10-30T16:47:43.342Z,21.90
2022-10-30T16:50:16.294Z,21.82
2022-10-30T16:52:43.517Z,21.74
2022-10-30T16:55:19.299Z,21.71
2022-10-30T16:57:53.179Z,21.63
2022-10-30T17:00:25.838Z,21.55
2022-10-30T17:02:55.987Z,21.47
2022-10-30T17:05:27.475Z,21.41
2022-10-30T17:08:09.118Z,21.34
2022-10-30T17:10:55.621Z,21.33
2022-10-30T17:13:42.669Z,21.26
2022-10-30T17:16:23.405Z,21.28
2022-10-30T17:18:52.323Z,21.25
2022-10-30T17:21:23.445Z,21.22
2022-10-30T17:23:52.404Z,21.20
2022-10-30T17:26:19.313Z,21.19
2022-10-30T17:28:47.450Z,21.18
2022-10-30T17:31:25.127Z,21.13
2022-10-30T17:34:17.993Z,21.10
2022-10-30T17:36:46.295Z,21.14
2022-10-30T17:39:13.263Z,21.12
2022-10-30T17:41:40.704Z,21.12
2022-10-30T17:44:19.012Z,21.06
2022-10-30T17:46:46.844Z,21.06
2022-10-30T17:49:29.081Z,21.02
2022-10-30T17:51:55.991Z,21.04
2022-10-30T17:54:22.728Z,21.03
2022-10-30T17:56:49.501Z,21.00
2022-10-30T17:59:16.206Z,20.98
2022-10-30T18:01:42.949Z,20.95
2022-10-30T18:04:20.952Z,20.90
2022-10-30T18:06:48.180Z,20.89
2022-10-30T18:09:15.188Z,20.86
2022-10-30T18:11:41.687Z,20.80
2022-10-30T18:14:10.892Z,20.75
2022-10-30T18:16:37.457Z,20.73
2022-10-30T18:19:04.008Z,20.70
2022-10-30T18:21:31.289Z,20.69
2022-10-30T18:23:57.972Z,20.68
2022-10-30T18:26:26.529Z,20.67
2022-10-30T18:28:53.467Z,20.67
2022-10-30T18:31:22.456Z,20.68
2022-10-30T18:33:49.262Z,20.69
2022-10-30T18:36:21.568Z,20.69
2022-10-30T18:38:48.821Z,20.72
2022-10-30T18:41:18.028Z,20.71
2022-10-30T18:43:46.910Z,20.72
2022-10-30T18:46:14.579Z,20.72
2022-10-30T18:48:41.376Z,20.70
2022-10-30T18:51:16.324Z,20.67
2022-10-30T18:53:51.009Z,20.68
2022-10-30T18:56:19.394Z,20.67
2022-10-30T18:58:46.223Z,20.67
2022-10-30T19:01:14.701Z,20.64
2022-10-30T19:03:41.984Z,20.62
2022-10-30T19:06:13.588Z,20.58
2022-10-30T19:08:40.424Z,20.58
2022-10-30T19:11:07.275Z,20.56
2022-10-30T19:13:33.815Z,20.54
2022-10-30T19:16:01.072Z,20.52
2022-10-30T19:18:28.682Z,20.52
2022-10-30T19:21:15.717Z,20.50
2022-10-30T19:23:41.846Z,20.51
2022-10-30T19:26:08.512Z,20.49
2022-10-30T19:28:35.324Z,20.48
2022-10-30T19:31:01.909Z,20.48
2022-10-30T19:33:28.502Z,20.46
2022-10-30T19:35:57.108Z,20.43
2022-10-30T19:38:24.239Z,20.41
2022-10-30T19:40:51.065Z,20.40
2022-10-30T19:43:17.615Z,20.37
2022-10-30T19:45:44.631Z,20.36
2022-10-30T19:48:24.750Z,20.31
2022-10-30T19:51:01.084Z,20.33
2022-10-30T19:53:28.761Z,20.29
2022-10-30T19:55:55.300Z,20.28
2022-10-30T19:58:25.143Z,20.25
2022-10-30T20:00:54.221Z,20.22
2022-10-30T20:03:21.028Z,20.20
2022-10-30T20:05:52.042Z,20.15
2022-10-30T20:08:22.137Z,20.12
2022-10-30T20:10:57.365Z,20.07
2022-10-30T20:13:25.198Z,20.07
2022-10-30T20:15:56.880Z,20.02
2022-10-30T20:18:30.256Z,20.00
2022-10-30T20:21:01.917Z,19.98
2022-10-30T20:23:28.950Z,19.94
2022-10-30T20:26:02.071Z,19.89
2022-10-30T20:28:35.751Z,19.88
2022-10-30T20:31:02.655Z,19.85
2022-10-30T20:33:29.263Z,19.81
2022-10-30T20:35:56.311Z,19.77
2022-10-30T20:38:31.322Z,19.70
2022-10-30T20:40:59.147Z,19.69
2022-10-30T20:43:29.984Z,19.64
2022-10-30T20:46:00.515Z,19.60
2022-10-30T20:48:27.789Z,19.57
2022-10-30T20:50:59.531Z,19.52
2022-10-30T20:53:26.441Z,19.51
2022-10-30T20:55:53.022Z,19.47
2022-10-30T20:58:19.826Z,19.44
2022-10-30T21:00:46.438Z,19.39
2022-10-30T21:03:15.786Z,19.37
2022-10-30T21:05:44.961Z,19.34
2022-10-30T21:08:13.662Z,19.30
2022-10-30T21:10:40.959Z,19.29
2022-10-30T21:13:09.600Z,19.25
2022-10-30T21:15:44.914Z,19.20
2022-10-30T21:18:15.182Z,19.20
2022-10-30T21:20:41.666Z,19.18
2022-10-30T21:23:08.819Z,19.14
2022-10-30T21:25:35.843Z,19.11
2022-10-30T21:28:03.192Z,19.08
2022-10-30T21:30:29.803Z,19.04
2022-10-30T21:32:56.423Z,19.01
2022-10-30T21:35:23.054Z,18.98
2022-10-30T21:37:49.822Z,18.96
2022-10-30T21:40:16.405Z,18.93
2022-10-30T21:42:42.915Z,18.91
2022-10-30T21:45:10.097Z,18.87
2022-10-30T21:47:36.684Z,18.85
2022-10-30T21:50:07.732Z,18.82
2022-10-30T21:52:36.178Z,18.79
2022-10-30T21:55:03.039Z,18.76
2022-10-30T21:57:29.817Z,18.73
2022-10-30T21:59:58.787Z,18.69
2022-10-30T22:02:28.331Z,18.68
2022-10-30T22:04:54.847Z,18.65
2022-10-30T22:07:21.447Z,18.63
2022-10-30T22:09:47.971Z,18.60
2022-10-30T22:12:14.436Z,18.58
2022-10-30T22:14:40.981Z,18.56
2022-10-30T22:17:08.435Z,18.55
2022-10-30T22:19:35.009Z,18.52
2022-10-30T22:22:01.494Z,18.50
2022-10-30T22:24:27.994Z,18.49
2022-10-30T22:26:54.582Z,18.48
2022-10-30T22:29:21.109Z,18.48
2022-10-30T22:31:47.708Z,18.47
2022-10-30T22:34:14.244Z,18.48
2022-10-30T22:36:40.810Z,18.45
2022-10-30T22:39:12.467Z,18.41
2022-10-30T22:41:39.408Z,18.40
2022-10-30T22:44:08.622Z,18.38
2022-10-30T22:46:36.462Z,18.35
2022-10-30T22:49:03.623Z,18.31
2022-10-30T22:51:32.464Z,18.28
2022-10-30T22:54:01.359Z,18.25
2022-10-30T22:56:30.598Z,18.22
2022-10-30T22:59:01.462Z,18.19
2022-10-30T23:01:30.588Z,18.17
2022-10-30T23:03:59.283Z,18.13
2022-10-30T23:06:27.737Z,18.10
2022-10-30T23:08:55.851Z,18.07
2022-10-30T23:11:22.946Z,18.05
2022-10-30T23:13:49.869Z,18.03
2022-10-30T23:16:19.095Z,18.01
2022-10-30T23:18:46.457Z,18.01
2022-10-30T23:21:16.536Z,17.99
2022-10-30T23:23:44.071Z,17.98
2022-10-30T23:26:21.005Z,17.93
2022-10-30T23:28:49.015Z,17.95
2022-10-30T23:31:35.506Z,17.91
2022-10-30T23:34:05.113Z,17.94
2022-10-30T23:36:31.867Z,17.94
2022-10-30T23:39:00.637Z,17.93
2022-10-30T23:41:32.276Z,17.93
2022-10-30T23:44:01.145Z,17.93
2022-10-30T23:46:28.258Z,17.95
2022-10-30T23:48:55.499Z,17.94
2022-10-30T23:51:22.673Z,17.95
2022-10-30T23:53:49.514Z,17.95
2022-10-30T23:56:16.735Z,17.96
2022-10-30T23:58:44.300Z,17.95
